createdAt,value
2023-05-25T05:01:03.051Z,1.20
2023-05-25T05:03:30.975Z,1.60
2023-05-25T05:05:58.154Z,1.60
2023-05-25T05:08:28.902Z,2.07
2023-05-25T05:10:56.023Z,1.83
2023-05-25T05:13:24.126Z,1.37
2023-05-25T05:15:51.593Z,1.77
2023-05-25T05:18:18.679Z,2.37
2023-05-25T05:20:46.286Z,1.63
2023-05-25T05:23:13.885Z,1.50
2023-05-25T05:25:41.205Z,1.57
2023-05-25T05:28:10.911Z,1.23
2023-05-25T05:30:41.070Z,1.53
2023-05-25T05:33:08.189Z,1.50
2023-05-25T05:35:44.575Z,1.70
2023-05-25T05:38:15.711Z,1.57
2023-05-25T05:40:42.824Z,1.33
2023-05-25T05:43:14.685Z,1.17
2023-05-25T05:45:41.907Z,1.30
2023-05-25T05:48:11.946Z,1.73
2023-05-25T05:50:41.997Z,1.60
2023-05-25T05:53:11.134Z,1.43
2023-05-25T05:55:38.349Z,1.37
2023-05-25T05:58:05.607Z,1.60
2023-05-25T06:00:52.606Z,1.70
2023-05-25T06:03:41.079Z,1.10
2023-05-25T06:06:28.123Z,1.23
2023-05-25T06:09:16.377Z,1.23
2023-05-25T06:12:03.557Z,1.60
2023-05-25T06:14:51.212Z,1.40
2023-05-25T06:17:41.213Z,1.73
2023-05-25T06:20:31.044Z,1.10
2023-05-25T06:23:18.081Z,1.37
2023-05-25T06:26:05.818Z,1.10
2023-05-25T06:28:52.908Z,1.10
2023-05-25T06:31:40.101Z,1.20
2023-05-25T06:34:27.359Z,1.00
2023-05-25T06:37:14.672Z,1.10
2023-05-25T06:40:02.134Z,1.20
2023-05-25T06:42:50.169Z,1.00
2023-05-25T06:45:57.740Z,1.67
2023-05-25T06:48:45.457Z,1.57
2023-05-25T06:51:32.545Z,1.10
2023-05-25T06:54:20.083Z,1.10
2023-05-25T06:57:07.132Z,0.90
2023-05-25T06:59:54.338Z,1.30
2023-05-25T07:02:41.391Z,1.00
2023-05-25T07:05:29.184Z,1.47
2023-05-25T07:08:16.397Z,0.87
2023-05-25T07:11:03.662Z,1.20
2023-05-25T07:13:50.646Z,0.90
2023-05-25T07:16:37.784Z,0.90
2023-05-25T07:19:24.860Z,1.20
2023-05-25T07:22:12.075Z,0.90
2023-05-25T07:24:59.168Z,0.80
2023-05-25T07:27:46.440Z,1.07
2023-05-25T07:30:34.006Z,1.03
2023-05-25T07:33:21.185Z,0.90
2023-05-25T07:36:08.514Z,1.10
2023-05-25T07:38:55.675Z,0.70
2023-05-25T07:41:42.711Z,0.83
2023-05-25T07:44:29.828Z,0.50
2023-05-25T07:47:16.887Z,0.83
2023-05-25T07:50:04.006Z,0.73
2023-05-25T07:52:51.240Z,0.77
2023-05-25T07:55:40.269Z,0.70
2023-05-25T07:58:28.077Z,0.60
2023-05-25T08:01:15.669Z,0.93
2023-05-25T08:04:02.957Z,0.50
2023-05-25T08:06:50.059Z,0.77
2023-05-25T08:09:37.199Z,0.93
2023-05-25T08:12:37.896Z,0.60
2023-05-25T08:15:30.047Z,0.87
2023-05-25T08:18:17.104Z,0.67
2023-05-25T08:21:04.350Z,0.87
2023-05-25T08:23:51.695Z,1.77
2023-05-25T08:26:53.223Z,1.87
2023-05-25T08:29:41.501Z,0.60
2023-05-25T08:32:28.641Z,0.87
2023-05-25T08:35:16.108Z,1.27
2023-05-25T08:38:03.775Z,1.10
2023-05-25T08:40:51.396Z,0.90
2023-05-25T08:43:38.533Z,1.27
2023-05-25T08:46:27.490Z,1.20
2023-05-25T08:49:22.857Z,0.73
2023-05-25T08:52:12.228Z,1.00
2023-05-25T08:55:01.721Z,1.00
2023-05-25T08:58:17.734Z,0.97
2023-05-25T09:01:12.575Z,0.90
2023-05-25T09:03:59.976Z,1.00
2023-05-25T09:06:57.243Z,1.37
2023-05-25T09:09:54.283Z,0.67
2023-05-25T09:12:42.448Z,0.90
2023-05-25T09:15:33.352Z,1.17
2023-05-25T09:18:20.700Z,0.90
2023-05-25T09:21:07.945Z,1.00
2023-05-25T09:23:57.370Z,0.80
2023-05-25T09:26:46.380Z,0.73
2023-05-25T09:29:35.606Z,0.80
2023-05-25T09:32:25.507Z,0.83
2023-05-25T09:35:12.950Z,0.87
2023-05-25T09:38:01.911Z,0.90
2023-05-25T09:40:50.734Z,0.70
2023-05-25T09:43:41.767Z,0.73
2023-05-25T09:46:31.279Z,0.83
2023-05-25T09:49:20.441Z,0.80
2023-05-25T09:52:08.055Z,1.20
2023-05-25T09:54:56.391Z,0.90
2023-05-25T09:57:43.609Z,1.10
2023-05-25T10:00:31.976Z,1.27
2023-05-25T10:03:20.361Z,0.97
2023-05-25T10:06:08.428Z,0.67
2023-05-25T10:08:55.897Z,0.80
2023-05-25T10:11:44.635Z,0.90
2023-05-25T10:14:35.530Z,0.93
2023-05-25T10:17:25.269Z,0.63
2023-05-25T10:20:19.786Z,0.70
2023-05-25T10:23:21.217Z,1.07
2023-05-25T10:26:12.876Z,0.80
2023-05-25T10:29:02.751Z,0.50
2023-05-25T10:31:52.048Z,0.87
2023-05-25T10:34:40.203Z,0.57
2023-05-25T10:37:29.035Z,0.83
2023-05-25T10:40:17.723Z,0.40
2023-05-25T10:43:05.749Z,0.50
2023-05-25T10:45:54.525Z,0.40
2023-05-25T10:48:42.756Z,0.40
2023-05-25T10:51:29.943Z,0.43
2023-05-25T10:54:21.321Z,0.63
2023-05-25T10:57:38.056Z,0.70
2023-05-25T11:00:27.315Z,0.83
2023-05-25T11:03:14.562Z,0.53
2023-05-25T11:06:02.015Z,0.70
2023-05-25T11:09:08.711Z,0.50
2023-05-25T11:12:05.182Z,0.50
2023-05-25T11:14:55.723Z,0.57
2023-05-25T11:17:42.784Z,0.30
2023-05-25T11:20:41.806Z,0.50
2023-05-25T11:23:44.380Z,0.60
2023-05-25T11:26:40.762Z,0.60
2023-05-25T11:29:35.847Z,0.70
2023-05-25T11:32:23.564Z,0.60
2023-05-25T11:35:14.582Z,0.70
2023-05-25T11:38:02.610Z,0.50
2023-05-25T11:40:50.536Z,0.60
2023-05-25T11:43:39.330Z,1.00
2023-05-25T11:46:29.938Z,0.73
2023-05-25T11:49:17.264Z,0.70
2023-05-25T11:52:04.340Z,0.80
2023-05-25T11:54:51.563Z,0.90
2023-05-25T11:57:43.202Z,0.80
2023-05-25T12:00:30.936Z,1.03
2023-05-25T12:03:18.304Z,0.80
2023-05-25T12:06:05.642Z,0.57
2023-05-25T12:08:54.122Z,0.50
2023-05-25T12:11:50.314Z,0.70
2023-05-25T12:14:37.667Z,0.43
2023-05-25T12:17:26.535Z,0.60
2023-05-25T12:20:13.751Z,0.50
2023-05-25T12:23:02.322Z,0.73
2023-05-25T12:25:51.125Z,0.40
2023-05-25T12:28:38.816Z,0.37
2023-05-25T12:31:55.068Z,0.37
2023-05-25T12:34:47.850Z,0.40
2023-05-25T12:37:42.219Z,0.67
2023-05-25T12:40:42.312Z,0.40
2023-05-25T12:43:30.562Z,0.40
2023-05-25T12:46:18.084Z,0.60
2023-05-25T12:49:05.321Z,0.67
2023-05-25T12:51:59.699Z,0.40
2023-05-25T12:55:13.653Z,0.40
2023-05-25T12:58:00.970Z,1.27
2023-05-25T13:00:52.407Z,0.60
2023-05-25T13:03:39.714Z,0.77
2023-05-25T13:06:27.034Z,0.50
2023-05-25T13:09:14.308Z,0.60
2023-05-25T13:12:01.232Z,0.50
2023-05-25T13:14:49.462Z,0.50
2023-05-25T13:17:36.732Z,0.60
2023-05-25T13:20:24.239Z,0.37
2023-05-25T13:23:12.849Z,0.50
2023-05-25T13:25:59.905Z,0.57
2023-05-25T13:28:47.222Z,0.70
2023-05-25T13:31:34.354Z,0.53
2023-05-25T13:34:21.575Z,0.60
2023-05-25T13:37:08.715Z,0.63
2023-05-25T13:39:55.814Z,0.57
2023-05-25T13:42:42.872Z,0.60
2023-05-25T13:45:30.515Z,0.73
2023-05-25T13:48:17.734Z,0.60
2023-05-25T13:51:05.242Z,0.30
2023-05-25T13:53:52.728Z,0.40
2023-05-25T13:56:39.825Z,0.50
2023-05-25T13:59:27.684Z,0.40
2023-05-25T14:02:14.727Z,0.40
2023-05-25T14:05:02.090Z,1.10
2023-05-25T14:07:49.182Z,0.53
2023-05-25T14:10:36.531Z,0.50
2023-05-25T14:13:23.550Z,0.43
2023-05-25T14:16:11.092Z,0.30
2023-05-25T14:18:58.088Z,0.80
2023-05-25T14:21:45.521Z,0.30
2023-05-25T14:24:32.815Z,0.30
2023-05-25T14:27:20.328Z,0.50
2023-05-25T14:30:08.816Z,0.40
2023-05-25T14:32:56.380Z,0.43
2023-05-25T14:35:43.766Z,0.40
2023-05-25T14:38:31.244Z,0.40
2023-05-25T14:41:19.000Z,0.40
2023-05-25T14:44:06.207Z,0.30
2023-05-25T14:46:56.503Z,0.60
2023-05-25T14:49:43.679Z,0.50
2023-05-25T14:52:30.911Z,0.50
2023-05-25T14:55:18.023Z,0.40
2023-05-25T14:58:05.314Z,0.30
2023-05-25T15:00:52.458Z,0.63
2023-05-25T15:03:39.998Z,0.30
2023-05-25T15:06:27.378Z,0.50
2023-05-25T15:09:14.626Z,0.50
2023-05-25T15:12:02.739Z,0.40
2023-05-25T15:14:49.848Z,0.90
2023-05-25T15:17:37.073Z,0.50
2023-05-25T15:20:24.472Z,0.23
2023-05-25T15:23:11.538Z,0.33
2023-05-25T15:25:58.555Z,0.43
2023-05-25T15:28:45.837Z,0.50
2023-05-25T15:31:32.885Z,0.30
2023-05-25T15:34:19.912Z,0.37
2023-05-25T15:37:07.102Z,0.37
2023-05-25T15:39:54.128Z,0.30
2023-05-25T15:42:41.300Z,0.40
2023-05-25T15:45:31.738Z,0.60
2023-05-25T15:48:18.851Z,1.30
2023-05-25T15:51:05.998Z,0.73
2023-05-25T15:53:53.106Z,0.40
2023-05-25T15:56:40.318Z,0.37
2023-05-25T15:59:27.543Z,0.40
2023-05-25T16:02:14.655Z,0.40
2023-05-25T16:05:01.903Z,0.50
2023-05-25T16:07:49.136Z,0.30
2023-05-25T16:10:36.515Z,0.50
2023-05-25T16:13:23.577Z,0.27
2023-05-25T16:16:10.714Z,0.30
2023-05-25T16:18:58.208Z,0.30
2023-05-25T16:21:45.305Z,0.40
2023-05-25T16:24:32.254Z,0.40
2023-05-25T16:27:19.794Z,0.50
2023-05-25T16:30:06.988Z,0.40
2023-05-25T16:32:54.187Z,0.87
2023-05-25T16:35:41.423Z,0.40
2023-05-25T16:38:28.623Z,0.40
2023-05-25T16:41:15.757Z,0.30
2023-05-25T16:44:03.028Z,0.40
2023-05-25T16:46:50.148Z,0.40
2023-05-25T16:49:37.140Z,0.40
2023-05-25T16:52:24.415Z,0.30
2023-05-25T16:55:11.358Z,0.50
2023-05-25T16:57:59.289Z,0.40
2023-05-25T17:00:46.243Z,0.50
2023-05-25T17:03:33.726Z,0.60
2023-05-25T17:06:20.816Z,0.40
2023-05-25T17:09:08.060Z,0.20
2023-05-25T17:11:55.236Z,0.47
2023-05-25T17:14:42.475Z,0.30
2023-05-25T17:17:29.534Z,0.40
2023-05-25T17:20:16.925Z,0.50
2023-05-25T17:23:04.066Z,0.50
2023-05-25T17:25:51.289Z,0.30
2023-05-25T17:28:38.368Z,0.43
2023-05-25T17:31:25.675Z,0.70
2023-05-25T17:34:12.770Z,0.63
2023-05-25T17:36:59.867Z,0.60
2023-05-25T17:39:46.906Z,0.70
2023-05-25T17:42:34.044Z,0.70
2023-05-25T17:45:21.251Z,0.70
2023-05-25T17:48:08.562Z,0.93
2023-05-25T17:50:55.727Z,0.70
2023-05-25T17:53:42.926Z,0.70
2023-05-25T17:56:30.212Z,0.83
2023-05-25T17:59:17.313Z,0.50
2023-05-25T18:02:04.491Z,0.70
2023-05-25T18:04:51.604Z,0.40
2023-05-25T18:07:38.761Z,0.50
2023-05-25T18:10:26.131Z,0.60
2023-05-25T18:13:13.285Z,0.50
2023-05-25T18:16:00.359Z,0.60
2023-05-25T18:18:47.342Z,0.50
2023-05-25T18:21:34.486Z,0.60
2023-05-25T18:24:21.666Z,0.60
2023-05-25T18:27:08.860Z,0.50
2023-05-25T18:29:56.071Z,0.50
2023-05-25T18:32:43.100Z,0.80
2023-05-25T18:35:30.121Z,0.67
2023-05-25T18:38:17.251Z,0.60
2023-05-25T18:41:04.236Z,0.33
2023-05-25T18:43:51.383Z,0.60
2023-05-25T18:46:38.497Z,0.50
2023-05-25T18:49:25.754Z,0.60
2023-05-25T18:52:12.774Z,0.60
2023-05-25T18:55:00.260Z,0.60
2023-05-25T18:57:47.396Z,0.70
2023-05-25T19:00:34.926Z,0.50
2023-05-25T19:03:22.098Z,0.50
2023-05-25T19:06:09.214Z,0.50
2023-05-25T19:08:56.399Z,0.40
2023-05-25T19:11:43.448Z,0.50
2023-05-25T19:14:30.497Z,0.70
2023-05-25T19:17:17.717Z,0.40
2023-05-25T19:20:04.824Z,0.50
2023-05-25T19:22:53.599Z,0.73
2023-05-25T19:25:40.737Z,0.63
2023-05-25T19:28:27.811Z,0.50
2023-05-25T19:31:14.839Z,0.40
2023-05-25T19:34:01.932Z,0.80
2023-05-25T19:36:56.409Z,1.23
2023-05-25T19:39:47.560Z,0.60
2023-05-25T19:42:34.894Z,0.50
2023-05-25T19:45:22.039Z,0.63
2023-05-25T19:48:09.169Z,0.40
2023-05-25T19:50:56.230Z,0.50
2023-05-25T19:53:43.289Z,0.80
2023-05-25T19:56:30.546Z,0.50
2023-05-25T19:59:17.709Z,0.50
2023-05-25T20:02:04.839Z,0.90
2023-05-25T20:04:51.925Z,0.60
2023-05-25T20:07:39.043Z,0.80
2023-05-25T20:10:26.464Z,0.70
2023-05-25T20:13:14.277Z,0.70
2023-05-25T20:16:01.343Z,0.60
2023-05-25T20:18:48.473Z,0.80
2023-05-25T20:21:35.842Z,0.80
2023-05-25T20:24:23.045Z,0.50
2023-05-25T20:27:10.084Z,0.60
2023-05-25T20:29:57.236Z,0.73
2023-05-25T20:32:44.473Z,0.53
2023-05-25T20:35:32.621Z,0.83
2023-05-25T20:38:19.809Z,0.77
2023-05-25T20:41:06.774Z,1.10
2023-05-25T20:43:53.908Z,0.60
2023-05-25T20:46:41.242Z,0.60
2023-05-25T20:49:28.456Z,0.70
2023-05-25T20:52:15.731Z,0.80
2023-05-25T20:55:02.880Z,0.63
2023-05-25T20:57:50.095Z,0.70
2023-05-25T21:00:37.580Z,1.10
2023-05-25T21:03:24.797Z,0.90
2023-05-25T21:06:12.008Z,0.67
2023-05-25T21:08:59.097Z,0.93
2023-05-25T21:11:46.362Z,0.97
2023-05-25T21:14:33.424Z,1.23
2023-05-25T21:17:20.479Z,0.87
2023-05-25T21:20:07.547Z,0.90
2023-05-25T21:22:54.739Z,0.90
2023-05-25T21:25:41.927Z,1.00
2023-05-25T21:28:29.075Z,0.97
2023-05-25T21:31:16.271Z,0.93
2023-05-25T21:34:03.334Z,0.90
2023-05-25T21:36:50.456Z,0.80
2023-05-25T21:39:37.756Z,0.80
2023-05-25T21:42:25.137Z,1.20
2023-05-25T21:45:12.321Z,0.90
2023-05-25T21:47:59.303Z,1.00
2023-05-25T21:50:46.415Z,0.70
2023-05-25T21:53:33.468Z,1.03
2023-05-25T21:56:20.673Z,1.20
2023-05-25T21:59:07.840Z,1.07
2023-05-25T22:01:54.986Z,0.73
2023-05-25T22:04:42.138Z,0.90
2023-05-25T22:07:29.226Z,0.90
2023-05-25T22:10:16.268Z,0.90
2023-05-25T22:13:03.303Z,0.80
2023-05-25T22:15:50.702Z,1.00
2023-05-25T22:18:38.651Z,0.60
2023-05-25T22:21:26.018Z,0.93
2023-05-25T22:24:13.274Z,1.00
2023-05-25T22:27:00.551Z,0.70
2023-05-25T22:29:47.587Z,1.10
2023-05-25T22:32:34.849Z,0.83
2023-05-25T22:35:22.583Z,0.70
2023-05-25T22:38:09.651Z,0.90
2023-05-25T22:40:56.696Z,0.90
2023-05-25T22:43:43.787Z,1.00
2023-05-25T22:46:30.971Z,1.30
2023-05-25T22:49:18.213Z,0.80
2023-05-25T22:52:05.495Z,1.10
2023-05-25T22:54:53.072Z,0.70
2023-05-25T22:57:40.332Z,0.93
2023-05-25T23:00:28.166Z,0.70
2023-05-25T23:03:15.527Z,0.70
2023-05-25T23:06:04.187Z,1.07
2023-05-25T23:08:51.162Z,0.90
2023-05-25T23:11:38.760Z,1.10
2023-05-25T23:14:25.944Z,0.80
2023-05-25T23:17:13.049Z,0.80
2023-05-25T23:20:00.143Z,0.70
2023-05-25T23:22:47.485Z,0.90
2023-05-25T23:25:34.557Z,0.90
2023-05-25T23:28:21.881Z,0.87
2023-05-25T23:31:09.246Z,0.80
2023-05-25T23:33:56.626Z,0.80
2023-05-25T23:36:43.716Z,1.30
2023-05-25T23:39:30.857Z,0.70
2023-05-25T23:42:17.824Z,0.70
2023-05-25T23:45:05.156Z,0.70
2023-05-25T23:47:52.176Z,0.60
2023-05-25T23:50:39.331Z,0.70
2023-05-25T23:53:26.216Z,0.50
2023-05-25T23:56:13.574Z,0.50
2023-05-25T23:59:00.628Z,0.87
